Pacific Titan — WCZ6844 — position and weather

sailwx.info

Track history (hours):
 
Tides and Currents Weather Stations Pressure Air Temp Water Temp Dewpoint Dewpoint Depression Visibility Wind Speed Wind Dir Waves Ship Positions

Pacific Titan

Owner: WESTERN TOWBOAT CO, SEATTLE, WA. More information available from US FCC via Universal Licensing System and Coast Guard Vessel Documentation Center.

Last reported at 2015-Sep-05 07:33 UTC. Time now 2015-Sep-05 07:51 UTC.
Position N 48°22' W 122°45'.

Type: Tow > 200 m length. MMSI: 338855000.

Date/timePositionNaut miles runAvg speedWind from/ knotsBaromVisibWave heightAir tempDewpointWater temp
2015-Sep-05 07:33N 48°22' W 122°45'12 8.6
2015-Sep-05 06:10N 48°10' W 122°44'710.1
2015-Sep-05 05:30N 48°04' W 122°38'210.0
2015-Sep-05 05:16N 48°02' W 122°37'7 9.4
2015-Sep-05 04:33N 47°57' W 122°32'0 9.3
2015-Sep-05 04:31N 47°56' W 122°31'9 9.5
2015-Sep-05 03:33N 47°48' W 122°26'0 9.1
2015-Sep-05 03:31N 47°48' W 122°26'9 9.2
2015-Sep-05 02:33N 47°39' W 122°27'0 9.2
2015-Sep-05 02:31N 47°38' W 122°27'6 6.3
2015-Sep-05 01:33N 47°34' W 122°21'0 4.0
2015-Sep-05 01:31N 47°34' W 122°21'1 0.7
2015-Sep-05 00:33N 47°33' W 122°21'0 0.1
2015-Sep-05 00:25N 47°33' W 122°21'0 0.0
2015-Sep-04 23:33N 47°33' W 122°21'0 0.2
2015-Sep-04 23:30N 47°33' W 122°21'8 8.2
2015-Sep-04 22:33N 47°40' W 122°27'111.9
2015-Sep-04 22:30N 47°40' W 122°26'2 1.7
2015-Sep-04 21:33N 47°40' W 122°24'0 0.0
2015-Sep-04 21:30N 47°40' W 122°24'0 0.3
2015-Sep-04 20:33N 47°40' W 122°24'0 0.1
2015-Sep-04 20:29N 47°40' W 122°24'1 1.4
2015-Sep-04 19:33N 47°39' W 122°22'0 0.2
2015-Sep-04 19:29N 47°39' W 122°22'0 0.0
2015-Sep-02 15:32N 47°39' W 122°22'2 2.0
2015-Sep-02 14:33N 47°40' W 122°24'0 8.4
2015-Sep-02 14:32N 47°40' W 122°25'5 5.3
2015-Sep-02 13:33N 47°35' W 122°22'0 0.2
2015-Sep-02 13:31N 47°35' W 122°22'6 6.3
2015-Sep-02 12:33N 47°40' W 122°28'0 7.9
2015-Sep-02 12:31N 47°40' W 122°28'9 9.6
2015-Sep-02 11:34N 47°49' W 122°28'0 8.3
2015-Sep-02 11:31N 47°50' W 122°28'9 9.2
2015-Sep-02 10:33N 47°57' W 122°35'9 8.9
2015-Sep-02 09:32N 48°06' W 122°40'2 9.1
2015-Sep-02 09:20N 48°07' W 122°42'7 8.2
2015-Sep-02 08:28N 48°12' W 122°49'910.0
2015-Sep-02 07:33N 48°21' W 122°46'1212.4
2015-Sep-02 06:33N 48°34' W 122°45'1110.7
2015-Sep-02 05:33N 48°44' W 122°47'1110.6
2015-Sep-02 04:33N 48°50' W 123°01'9 9.5
2015-Sep-02 03:33N 48°56' W 123°12'9 9.3
2015-Sep-02 02:33N 49°02' W 123°22'9 8.8
2015-Sep-02 01:33N 49°08' W 123°32'8 8.4
2015-Sep-02 00:33N 49°14' W 123°41'9 8.6
2015-Sep-01 23:33N 49°20' W 123°50'9 8.8
2015-Sep-01 22:33N 49°25' W 124°02'8 8.1
2015-Sep-01 21:33N 49°30' W 124°11'8 8.2
2015-Sep-01 20:34N 49°34' W 124°22'9 8.5
2015-Sep-01 19:33N 49°38' W 124°34'8 8.2
2015-Sep-01 18:33N 49°44' W 124°44'9 8.7
2015-Sep-01 17:31N 49°49' W 124°54'9 9.1
2015-Sep-01 16:33N 49°55' W 125°04'7 7.4
2015-Sep-01 15:33N 50°01' W 125°12'9 8.6
2015-Sep-01 14:33N 50°07' W 125°20'8 7.7
2015-Sep-01 13:33N 50°15' W 125°23'2 2.2
2015-Sep-01 12:32N 50°17' W 125°24'41 9.6
2015-Sep-01 08:20N 50°30' W 126°24'15 7.9
2015-Sep-01 06:28N 50°36' W 126°45'10 9.8
2015-Sep-01 05:24N 50°43' W 126°58'8 9.3
2015-Sep-01 04:34N 50°46' W 127°09'9 9.2
2015-Sep-01 03:33N 50°52' W 127°21'7 7.1
2015-Sep-01 02:34N 50°57' W 127°29'8 7.7
2015-Sep-01 01:33N 51°02' W 127°38'8 8.4
2015-Sep-01 00:33N 51°08' W 127°48'9 8.6
2015-Aug-31 23:33N 51°16' W 127°53'11 8.5
2015-Aug-31 22:13N 51°27' W 127°51'  
2015-Aug-28 14:24N 56°34' W 135°22'5 6.3
2015-Aug-28 13:34N 56°39' W 135°28'6 6.2
2015-Aug-28 12:33N 56°44' W 135°35'6 6.0
2015-Aug-28 11:33N 56°49' W 135°39'6 5.7
2015-Aug-28 10:34N 56°55' W 135°38'6 6.1
2015-Aug-28 09:34N 56°59' W 135°30'8 7.8
2015-Aug-28 08:34N 57°07' W 135°31'4 3.8
2015-Aug-28 07:33N 57°07' W 135°24'0 0.1
2015-Aug-28 06:33N 57°07' W 135°23'0 0.0
2015-Aug-28 05:33N 57°07' W 135°23'0 0.0
2015-Aug-28 04:33N 57°07' W 135°23'0 0.0
2015-Aug-28 03:34N 57°07' W 135°23'0 0.0
2015-Aug-28 02:34N 57°07' W 135°23'0 0.0
2015-Aug-28 01:33N 57°07' W 135°23'0 0.0
2015-Aug-28 00:33N 57°07' W 135°23'2 1.7
2015-Aug-27 23:34N 57°09' W 135°25'7 7.2
2015-Aug-27 22:34N 57°02' W 135°30'9 8.8
2015-Aug-27 21:34N 56°55' W 135°41'9 9.1
2015-Aug-27 20:33N 56°56' W 135°57'81 8.1
2015-Aug-27 10:32N 58°16' W 136°12'1111.7
2015-Aug-27 09:34N 58°18' W 135°51'1210.8
2015-Aug-27 08:29N 58°13' W 135°30'  
Track history (hours):
 
Tides and Currents Weather Stations Pressure Air Temp Water Temp Dewpoint Dewpoint Depression Visibility Wind Speed Wind Dir Waves Ship Positions

Pacific Titan

Owner: WESTERN TOWBOAT CO, SEATTLE, WA. More information available from US FCC via Universal Licensing System and Coast Guard Vessel Documentation Center.

Last reported at 2015-Sep-05 07:33 UTC. Time now 2015-Sep-05 07:51 UTC.
Position N 48°22' W 122°45'.

Type: Tow > 200 m length. MMSI: 338855000.

Date/timePositionNaut miles runAvg speedWind from/ knotsBaromVisibWave heightAir tempDewpointWater temp
2015-Sep-05 07:33N 48°22' W 122°45'12 8.6
2015-Sep-05 06:10N 48°10' W 122°44'710.1
2015-Sep-05 05:30N 48°04' W 122°38'210.0
2015-Sep-05 05:16N 48°02' W 122°37'7 9.4
2015-Sep-05 04:33N 47°57' W 122°32'0 9.3
2015-Sep-05 04:31N 47°56' W 122°31'9 9.5
2015-Sep-05 03:33N 47°48' W 122°26'0 9.1
2015-Sep-05 03:31N 47°48' W 122°26'9 9.2
2015-Sep-05 02:33N 47°39' W 122°27'0 9.2
2015-Sep-05 02:31N 47°38' W 122°27'6 6.3
2015-Sep-05 01:33N 47°34' W 122°21'0 4.0
2015-Sep-05 01:31N 47°34' W 122°21'1 0.7
2015-Sep-05 00:33N 47°33' W 122°21'0 0.1
2015-Sep-05 00:25N 47°33' W 122°21'0 0.0
2015-Sep-04 23:33N 47°33' W 122°21'0 0.2
2015-Sep-04 23:30N 47°33' W 122°21'8 8.2
2015-Sep-04 22:33N 47°40' W 122°27'111.9
2015-Sep-04 22:30N 47°40' W 122°26'2 1.7
2015-Sep-04 21:33N 47°40' W 122°24'0 0.0
2015-Sep-04 21:30N 47°40' W 122°24'0 0.3
2015-Sep-04 20:33N 47°40' W 122°24'0 0.1
2015-Sep-04 20:29N 47°40' W 122°24'1 1.4
2015-Sep-04 19:33N 47°39' W 122°22'0 0.2
2015-Sep-04 19:29N 47°39' W 122°22'0 0.0
2015-Sep-02 15:32N 47°39' W 122°22'2 2.0
2015-Sep-02 14:33N 47°40' W 122°24'0 8.4
2015-Sep-02 14:32N 47°40' W 122°25'5 5.3
2015-Sep-02 13:33N 47°35' W 122°22'0 0.2
2015-Sep-02 13:31N 47°35' W 122°22'6 6.3
2015-Sep-02 12:33N 47°40' W 122°28'0 7.9
2015-Sep-02 12:31N 47°40' W 122°28'9 9.6
2015-Sep-02 11:34N 47°49' W 122°28'0 8.3
2015-Sep-02 11:31N 47°50' W 122°28'9 9.2
2015-Sep-02 10:33N 47°57' W 122°35'9 8.9
2015-Sep-02 09:32N 48°06' W 122°40'2 9.1
2015-Sep-02 09:20N 48°07' W 122°42'7 8.2
2015-Sep-02 08:28N 48°12' W 122°49'910.0
2015-Sep-02 07:33N 48°21' W 122°46'1212.4
2015-Sep-02 06:33N 48°34' W 122°45'1110.7
2015-Sep-02 05:33N 48°44' W 122°47'1110.6
2015-Sep-02 04:33N 48°50' W 123°01'9 9.5
2015-Sep-02 03:33N 48°56' W 123°12'9 9.3
2015-Sep-02 02:33N 49°02' W 123°22'9 8.8
2015-Sep-02 01:33N 49°08' W 123°32'8 8.4
2015-Sep-02 00:33N 49°14' W 123°41'9 8.6
2015-Sep-01 23:33N 49°20' W 123°50'9 8.8
2015-Sep-01 22:33N 49°25' W 124°02'8 8.1
2015-Sep-01 21:33N 49°30' W 124°11'8 8.2
2015-Sep-01 20:34N 49°34' W 124°22'9 8.5
2015-Sep-01 19:33N 49°38' W 124°34'8 8.2
2015-Sep-01 18:33N 49°44' W 124°44'9 8.7
2015-Sep-01 17:31N 49°49' W 124°54'9 9.1
2015-Sep-01 16:33N 49°55' W 125°04'7 7.4
2015-Sep-01 15:33N 50°01' W 125°12'9 8.6
2015-Sep-01 14:33N 50°07' W 125°20'8 7.7
2015-Sep-01 13:33N 50°15' W 125°23'2 2.2
2015-Sep-01 12:32N 50°17' W 125°24'41 9.6
2015-Sep-01 08:20N 50°30' W 126°24'15 7.9
2015-Sep-01 06:28N 50°36' W 126°45'10 9.8
2015-Sep-01 05:24N 50°43' W 126°58'8 9.3
2015-Sep-01 04:34N 50°46' W 127°09'9 9.2
2015-Sep-01 03:33N 50°52' W 127°21'7 7.1
2015-Sep-01 02:34N 50°57' W 127°29'8 7.7
2015-Sep-01 01:33N 51°02' W 127°38'8 8.4
2015-Sep-01 00:33N 51°08' W 127°48'9 8.6
2015-Aug-31 23:33N 51°16' W 127°53'11 8.5
2015-Aug-31 22:13N 51°27' W 127°51'  
2015-Aug-28 14:24N 56°34' W 135°22'5 6.3
2015-Aug-28 13:34N 56°39' W 135°28'6 6.2
2015-Aug-28 12:33N 56°44' W 135°35'6 6.0
2015-Aug-28 11:33N 56°49' W 135°39'6 5.7
2015-Aug-28 10:34N 56°55' W 135°38'6 6.1
2015-Aug-28 09:34N 56°59' W 135°30'8 7.8
2015-Aug-28 08:34N 57°07' W 135°31'4 3.8
2015-Aug-28 07:33N 57°07' W 135°24'0 0.1
2015-Aug-28 06:33N 57°07' W 135°23'0 0.0
2015-Aug-28 05:33N 57°07' W 135°23'0 0.0
2015-Aug-28 04:33N 57°07' W 135°23'0 0.0
2015-Aug-28 03:34N 57°07' W 135°23'0 0.0
2015-Aug-28 02:34N 57°07' W 135°23'0 0.0
2015-Aug-28 01:33N 57°07' W 135°23'0 0.0
2015-Aug-28 00:33N 57°07' W 135°23'2 1.7
2015-Aug-27 23:34N 57°09' W 135°25'7 7.2
2015-Aug-27 22:34N 57°02' W 135°30'9 8.8
2015-Aug-27 21:34N 56°55' W 135°41'9 9.1
2015-Aug-27 20:33N 56°56' W 135°57'81 8.1
2015-Aug-27 10:32N 58°16' W 136°12'1111.7
2015-Aug-27 09:34N 58°18' W 135°51'1210.8
2015-Aug-27 08:29N 58°13' W 135°30'  

Dump ship's entire track history